Time;durP1;ratioP1;P1;durP2;ratioP2;P2;SDS_P1;SDS_P2;PMS_P1;PMS_P2;Temp;Humidity;BMP_temperature;BMP_pressure;BME280_temperature;BME280_humidity;BME280_pressure;Samples;Min_cycle;Max_cycle;Signal;HPM_P1;HPM_P2
2023/08/20 00:00:32;;;;;;;5.70;4.27;;;22.60;99.90;;;;;;5117866;28;20200;-83
2023/08/20 00:03:05;;;;;;;5.47;4.23;;;22.60;99.90;;;;;;5117433;28;20474;-83
2023/08/20 00:05:32;;;;;;;4.20;2.83;;;22.60;99.90;;;;;;5117688;28;20462;-83
2023/08/20 00:07:59;;;;;;;5.33;4.23;;;22.60;99.90;;;;;;5117381;28;20447;-83
2023/08/20 00:10:27;;;;;;;4.57;3.87;;;22.60;99.90;;;;;;5117308;28;20816;-83
2023/08/20 00:12:54;;;;;;;6.30;4.50;;;22.60;99.90;;;;;;5118152;27;20441;-83
2023/08/20 00:15:26;;;;;;;4.47;4.07;;;22.60;99.90;;;;;;5117474;28;20831;-83
2023/08/20 00:17:54;;;;;;;4.97;3.97;;;22.50;99.90;;;;;;5117259;28;20426;-83
2023/08/20 00:20:21;;;;;;;4.80;3.70;;;22.50;99.90;;;;;;5117437;28;20446;-83
2023/08/20 00:22:49;;;;;;;3.83;3.50;;;22.50;99.90;;;;;;5117049;28;21074;-83
2023/08/20 00:25:17;;;;;;;5.97;4.80;;;22.50;99.90;;;;;;5117277;28;20458;-83
2023/08/20 00:27:45;;;;;;;4.37;3.90;;;22.50;99.90;;;;;;5117047;27;20927;-83
2023/08/20 00:30:12;;;;;;;5.20;4.23;;;22.40;99.90;;;;;;5117374;28;20204;-83
2023/08/20 00:32:39;;;;;;;4.20;3.80;;;22.40;99.90;;;;;;5117246;28;20439;-83
2023/08/20 00:35:07;;;;;;;3.80;3.47;;;22.30;99.90;;;;;;5116795;28;20944;-82
2023/08/20 00:37:35;;;;;;;4.27;3.60;;;22.30;99.90;;;;;;5117074;28;20442;-82
2023/08/20 00:40:04;;;;;;;4.20;3.37;;;22.30;99.90;;;;;;5116760;28;20665;-82
2023/08/20 00:42:30;;;;;;;7.30;4.40;;;22.20;99.90;;;;;;5116938;28;20446;-82
2023/08/20 00:44:59;;;;;;;5.77;4.77;;;22.30;99.90;;;;;;5116644;28;20513;-82
2023/08/20 00:47:26;;;;;;;4.70;4.23;;;22.20;99.90;;;;;;5117494;28;20450;-82
2023/08/20 00:49:53;;;;;;;4.27;3.87;;;22.20;99.90;;;;;;5116924;28;20458;-82
2023/08/20 00:52:22;;;;;;;4.87;4.00;;;22.20;99.90;;;;;;5116509;28;20939;-82
2023/08/20 00:54:50;;;;;;;4.20;3.33;;;22.20;99.90;;;;;;5116791;28;20450;-82
2023/08/20 00:57:19;;;;;;;5.10;4.07;;;22.10;99.90;;;;;;5116780;28;20449;-82
2023/08/20 00:59:48;;;;;;;7.33;4.17;;;22.10;99.90;;;;;;5116682;28;20446;-81
2023/08/20 01:02:17;;;;;;;7.83;4.30;;;22.10;99.90;;;;;;5116339;28;20815;-82
2023/08/20 01:04:44;;;;;;;8.10;5.00;;;22.00;99.90;;;;;;5116469;28;20482;-82
2023/08/20 01:07:22;;;;;;;4.87;4.37;;;22.00;99.90;;;;;;5116231;28;20439;-82
2023/08/20 01:09:58;;;;;;;4.30;3.90;;;22.00;99.90;;;;;;5116482;28;20431;-82
2023/08/20 01:12:26;;;;;;;5.00;4.53;;;22.00;99.90;;;;;;5116188;28;20903;-82
2023/08/20 01:14:53;;;;;;;4.90;4.20;;;22.00;99.90;;;;;;5116319;28;20463;-82
2023/08/20 01:17:21;;;;;;;4.43;3.83;;;21.90;99.90;;;;;;5116343;28;20442;-82
2023/08/20 01:19:48;;;;;;;4.30;3.90;;;21.90;99.90;;;;;;5116306;28;20454;-82
2023/08/20 01:22:32;;;;;;;7.37;4.33;;;21.90;99.90;;;;;;5116365;27;20457;-82
2023/08/20 01:25:11;;;;;;;5.40;4.00;;;21.90;99.90;;;;;;5115806;28;20489;-82
2023/08/20 01:27:46;;;;;;;4.20;3.80;;;21.90;99.90;;;;;;5116204;28;20445;-82
2023/08/20 01:30:16;;;;;;;5.00;4.20;;;21.80;99.90;;;;;;5116102;28;20436;-82
2023/08/20 01:32:44;;;;;;;3.97;3.70;;;21.80;99.90;;;;;;5115739;28;20943;-82
2023/08/20 01:35:13;;;;;;;7.47;4.90;;;21.80;99.90;;;;;;5115854;28;20869;-82
2023/08/20 01:37:40;;;;;;;5.77;4.20;;;21.80;99.90;;;;;;5115941;28;20500;-82
2023/08/20 01:40:10;;;;;;;7.80;4.43;;;21.70;99.90;;;;;;5115924;28;20491;-82
2023/08/20 01:42:36;;;;;;;6.00;4.40;;;21.70;99.90;;;;;;5115895;28;20446;-81
2023/08/20 01:45:04;;;;;;;5.00;4.43;;;21.60;99.90;;;;;;5115881;28;20486;-82
2023/08/20 01:47:32;;;;;;;4.93;4.43;;;21.60;99.90;;;;;;5115491;28;20966;-82
2023/08/20 01:49:59;;;;;;;7.47;4.40;;;21.60;99.90;;;;;;5115768;28;20442;-82
2023/08/20 01:52:26;;;;;;;5.77;4.33;;;21.60;99.90;;;;;;5115405;28;20496;-82
2023/08/20 01:54:53;;;;;;;11.23;3.97;;;21.60;99.90;;;;;;5115253;27;20979;-82
2023/08/20 01:57:20;;;;;;;6.43;4.10;;;21.60;99.90;;;;;;5115607;28;20506;-82
2023/08/20 01:59:47;;;;;;;5.17;4.60;;;21.70;99.90;;;;;;5115745;28;20443;-82
2023/08/20 02:02:14;;;;;;;4.93;4.17;;;21.60;99.90;;;;;;5115453;28;20961;-82
2023/08/20 02:04:42;;;;;;;5.80;4.20;;;21.60;99.90;;;;;;5114817;28;20490;-82
2023/08/20 02:07:09;;;;;;;6.23;4.50;;;21.60;99.90;;;;;;5115049;28;20446;-82
2023/08/20 02:09:36;;;;;;;7.50;5.10;;;21.60;99.90;;;;;;5115316;28;20454;-82
2023/08/20 02:12:02;;;;;;;12.63;5.70;;;21.60;99.90;;;;;;5115320;28;20446;-82
2023/08/20 02:14:29;;;;;;;5.00;4.00;;;21.60;99.90;;;;;;5115586;28;20466;-82
2023/08/20 02:16:56;;;;;;;6.00;3.97;;;21.50;99.90;;;;;;5115232;28;20500;-82
2023/08/20 02:19:23;;;;;;;7.77;4.57;;;21.50;99.90;;;;;;5115146;28;20811;-82
2023/08/20 02:21:51;;;;;;;6.23;4.57;;;21.50;99.90;;;;;;5114608;28;20439;-82
2023/08/20 02:24:17;;;;;;;5.43;4.43;;;21.40;99.90;;;;;;5114614;28;21013;-82
2023/08/20 02:26:44;;;;;;;5.00;4.53;;;21.50;99.90;;;;;;5115010;28;20449;-82
2023/08/20 02:29:11;;;;;;;4.37;3.53;;;21.40;99.90;;;;;;5114943;28;20450;-82
2023/08/20 02:31:38;;;;;;;6.60;4.10;;;21.40;99.90;;;;;;5114890;28;20454;-82
2023/08/20 02:34:05;;;;;;;5.60;4.40;;;21.40;99.90;;;;;;5114804;28;20438;-82
2023/08/20 02:36:31;;;;;;;5.63;4.57;;;21.40;99.90;;;;;;5114782;28;20446;-82
2023/08/20 02:38:59;;;;;;;4.57;3.80;;;21.40;99.90;;;;;;5114435;28;20442;-82
2023/08/20 02:41:26;;;;;;;5.97;4.60;;;21.40;99.90;;;;;;5114699;28;20474;-82
2023/08/20 02:43:53;;;;;;;5.03;4.60;;;21.30;99.90;;;;;;5114571;28;20470;-82
2023/08/20 02:46:19;;;;;;;5.07;3.93;;;21.30;99.90;;;;;;5114228;28;20994;-82
2023/08/20 02:48:46;;;;;;;7.10;4.47;;;21.30;99.90;;;;;;5114595;28;20443;-82
2023/08/20 02:51:13;;;;;;;4.50;4.10;;;21.30;99.90;;;;;;5114492;28;20442;-82
2023/08/20 02:53:39;;;;;;;8.43;4.90;;;21.30;99.90;;;;;;5114147;28;20806;-82
2023/08/20 02:56:07;;;;;;;9.50;4.73;;;21.30;99.90;;;;;;5114560;28;20482;-82
2023/08/20 02:58:34;;;;;;;4.77;4.00;;;21.30;99.90;;;;;;5114430;28;20446;-82
2023/08/20 03:01:01;;;;;;;6.10;4.40;;;21.30;99.90;;;;;;5114762;28;20442;-82
2023/08/20 03:03:28;;;;;;;7.37;4.67;;;21.30;99.90;;;;;;5113930;28;20489;-82
2023/08/20 03:05:54;;;;;;;5.03;4.53;;;21.30;99.90;;;;;;5114231;28;20466;-82
2023/08/20 03:08:21;;;;;;;6.97;4.50;;;21.20;99.90;;;;;;5114261;28;20450;-82
2023/08/20 03:10:48;;;;;;;9.83;5.23;;;21.20;99.90;;;;;;5114460;28;20615;-82
2023/08/20 03:13:16;;;;;;;6.80;5.17;;;21.20;99.90;;;;;;5114194;28;20528;-82
2023/08/20 03:15:43;;;;;;;5.70;4.80;;;21.20;99.90;;;;;;5114022;28;20466;-82
2023/08/20 03:18:09;;;;;;;4.57;4.13;;;21.20;99.90;;;;;;5114106;28;20442;-82
2023/08/20 03:20:36;;;;;;;7.00;4.60;;;21.20;99.90;;;;;;5113743;28;20798;-82
2023/08/20 03:23:03;;;;;;;5.00;4.50;;;21.20;99.90;;;;;;5114026;28;20446;-82
2023/08/20 03:25:29;;;;;;;5.53;4.13;;;21.10;99.90;;;;;;5113820;28;20483;-82
2023/08/20 03:27:56;;;;;;;8.70;4.67;;;21.10;99.90;;;;;;5113618;28;20442;-82
2023/08/20 03:30:24;;;;;;;8.67;5.70;;;21.10;99.90;;;;;;5114083;28;20807;-82
2023/08/20 03:32:51;;;;;;;4.60;4.20;;;21.10;99.90;;;;;;5113291;28;20438;-82
2023/08/20 03:35:18;;;;;;;11.83;5.43;;;21.10;99.90;;;;;;5113499;28;20975;-82
2023/08/20 03:37:45;;;;;;;14.23;4.47;;;21.10;99.90;;;;;;5113870;28;20438;-82
2023/08/20 03:40:12;;;;;;;5.63;5.00;;;21.10;99.90;;;;;;5113542;28;20442;-82
2023/08/20 03:42:39;;;;;;;7.13;4.67;;;21.10;99.90;;;;;;5113774;28;20470;-82
2023/08/20 03:45:06;;;;;;;6.17;4.37;;;21.10;99.90;;;;;;5113326;28;20490;-82
2023/08/20 03:47:34;;;;;;;7.60;5.33;;;21.10;99.90;;;;;;5113743;28;20435;-82
2023/08/20 03:50:01;;;;;;;6.20;4.33;;;21.10;99.90;;;;;;5113707;28;20443;-82
2023/08/20 03:52:28;;;;;;;8.87;5.27;;;21.10;99.90;;;;;;5113641;28;20442;-82
2023/08/20 03:54:54;;;;;;;10.53;5.40;;;21.10;99.90;;;;;;5113350;28;20457;-81
2023/08/20 03:57:21;;;;;;;6.90;4.80;;;21.10;99.90;;;;;;5113650;28;20450;-82
2023/08/20 03:59:48;;;;;;;8.73;5.03;;;21.10;99.90;;;;;;5113658;28;20449;-82
2023/08/20 04:02:15;;;;;;;9.63;5.37;;;21.10;99.90;;;;;;5113337;28;20835;-82
2023/08/20 04:04:43;;;;;;;6.47;4.80;;;21.20;99.90;;;;;;5113021;28;20493;-82
2023/08/20 04:07:10;;;;;;;6.10;5.17;;;21.10;99.90;;;;;;5113276;28;20446;-82
2023/08/20 04:09:38;;;;;;;8.63;4.90;;;21.20;99.90;;;;;;5113490;28;20442;-82
2023/08/20 04:12:05;;;;;;;7.73;5.10;;;21.20;99.90;;;;;;5113544;28;20469;-82
2023/08/20 04:14:32;;;;;;;6.63;5.70;;;21.10;99.90;;;;;;5113459;28;20454;-82
2023/08/20 04:16:58;;;;;;;5.10;4.57;;;21.20;99.90;;;;;;5113540;28;20813;-82
2023/08/20 04:19:26;;;;;;;6.53;4.73;;;21.20;99.90;;;;;;5113464;28;20447;-82
2023/08/20 04:21:54;;;;;;;6.57;4.40;;;21.20;99.90;;;;;;5113415;28;20534;-82
2023/08/20 04:24:20;;;;;;;6.83;4.47;;;21.20;99.90;;;;;;5112950;28;20532;-82
2023/08/20 04:26:47;;;;;;;10.77;5.73;;;21.10;99.90;;;;;;5113407;28;20449;-82
2023/08/20 04:29:14;;;;;;;9.13;5.47;;;21.10;99.90;;;;;;5113337;28;20449;-82
2023/08/20 04:31:40;;;;;;;9.20;4.70;;;21.10;99.90;;;;;;5113385;28;20458;-82
2023/08/20 04:34:07;;;;;;;6.10;4.50;;;21.10;99.90;;;;;;5113243;28;20435;-82
2023/08/20 04:36:34;;;;;;;7.13;5.37;;;21.00;99.90;;;;;;5113007;28;20810;-82
2023/08/20 04:39:02;;;;;;;5.87;4.53;;;21.00;99.90;;;;;;5113277;28;20439;-82
2023/08/20 04:41:29;;;;;;;6.20;4.37;;;21.00;99.90;;;;;;5113242;28;20446;-82
2023/08/20 04:43:55;;;;;;;7.47;5.57;;;21.00;99.90;;;;;;5114606;28;20443;-82
2023/08/20 04:46:22;;;;;;;6.30;4.53;;;20.90;99.90;;;;;;5116606;28;20986;-82
2023/08/20 04:48:49;;;;;;;5.77;4.97;;;20.90;99.90;;;;;;5116994;28;20453;-82
2023/08/20 04:51:16;;;;;;;6.37;4.73;;;20.90;99.90;;;;;;5116565;28;20446;-82
2023/08/20 04:53:42;;;;;;;7.83;4.70;;;20.90;99.90;;;;;;5116855;28;20447;-82
2023/08/20 04:56:10;;;;;;;8.90;5.30;;;20.90;99.90;;;;;;5116760;28;20454;-82
2023/08/20 04:58:37;;;;;;;7.27;5.47;;;20.90;99.90;;;;;;5116508;28;20754;-82
2023/08/20 05:01:05;;;;;;;5.80;4.87;;;20.90;99.90;;;;;;5116712;28;20446;-82
2023/08/20 05:03:32;;;;;;;8.07;5.60;;;21.00;99.90;;;;;;5116420;28;20480;-82
2023/08/20 05:05:59;;;;;;;6.33;5.03;;;21.00;99.90;;;;;;5116707;28;20497;-82
2023/08/20 05:08:25;;;;;;;10.73;5.93;;;21.00;99.90;;;;;;5116617;28;20517;-82
2023/08/20 05:10:52;;;;;;;6.47;5.20;;;21.00;99.90;;;;;;5116516;28;20446;-82
2023/08/20 05:13:21;;;;;;;5.63;4.97;;;21.00;99.90;;;;;;5116771;28;20434;-82
2023/08/20 05:15:47;;;;;;;5.00;4.50;;;21.10;99.90;;;;;;5116375;27;20486;-82
2023/08/20 05:18:14;;;;;;;6.17;4.17;;;21.20;99.90;;;;;;5117241;28;20449;-82
2023/08/20 05:20:41;;;;;;;6.63;5.07;;;21.10;99.90;;;;;;5116275;28;20538;-83
2023/08/20 05:23:08;;;;;;;6.60;4.80;;;21.20;99.90;;;;;;5116291;28;20446;-83
2023/08/20 05:25:34;;;;;;;5.23;4.47;;;21.20;99.90;;;;;;5116071;28;20504;-83
2023/08/20 05:28:02;;;;;;;5.73;4.27;;;21.20;99.90;;;;;;5115881;28;20954;-83
2023/08/20 05:30:30;;;;;;;5.67;4.23;;;21.20;99.90;;;;;;5115816;27;20533;-83
2023/08/20 05:32:57;;;;;;;9.23;4.60;;;21.30;99.90;;;;;;5116114;28;20446;-83
2023/08/20 05:35:23;;;;;;;5.13;3.97;;;21.30;99.90;;;;;;5115977;28;20532;-83
2023/08/20 05:37:50;;;;;;;8.03;5.00;;;21.40;99.90;;;;;;5116019;28;20443;-83
2023/08/20 05:40:17;;;;;;;7.90;5.37;;;21.40;99.90;;;;;;5116216;28;20439;-83
2023/08/20 05:42:44;;;;;;;4.77;4.27;;;21.50;99.90;;;;;;5116043;28;20450;-83
2023/08/20 05:45:10;;;;;;;4.60;4.10;;;21.50;99.90;;;;;;5115701;28;20480;-83
2023/08/20 05:47:38;;;;;;;4.40;3.83;;;21.60;99.90;;;;;;5115552;28;20825;-83
2023/08/20 05:50:06;;;;;;;7.27;4.80;;;21.60;99.90;;;;;;5115764;28;20446;-83
2023/08/20 05:52:33;;;;;;;6.80;4.83;;;21.70;99.90;;;;;;5115951;28;20442;-83
2023/08/20 05:55:00;;;;;;;7.50;4.60;;;21.70;99.90;;;;;;5114792;28;20458;-82
2023/08/20 05:57:26;;;;;;;5.50;3.80;;;21.70;99.90;;;;;;5115646;28;20449;-83
2023/08/20 05:59:53;;;;;;;6.30;4.63;;;21.80;99.90;;;;;;5115852;28;20438;-83
2023/08/20 06:02:20;;;;;;;9.63;5.37;;;21.90;99.90;;;;;;5115426;28;20446;-83
2023/08/20 06:04:49;;;;;;;7.37;4.93;;;22.00;99.90;;;;;;5115378;27;20478;-83
2023/08/20 06:07:15;;;;;;;6.27;5.17;;;22.20;99.90;;;;;;5115552;28;20451;-83
2023/08/20 06:09:42;;;;;;;7.07;5.80;;;22.40;99.90;;;;;;5115379;28;20443;-83
2023/08/20 06:12:09;;;;;;;5.83;4.87;;;22.50;99.90;;;;;;5115361;28;20439;-83
2023/08/20 06:14:35;;;;;;;8.70;6.00;;;22.80;99.90;;;;;;5115205;28;20461;-83
2023/08/20 06:17:03;;;;;;;4.77;4.10;;;23.00;99.90;;;;;;5115240;28;20465;-83
2023/08/20 06:19:30;;;;;;;5.33;4.70;;;23.20;99.90;;;;;;5115002;28;20192;-83
2023/08/20 06:21:58;;;;;;;7.33;4.90;;;23.30;99.90;;;;;;5115120;28;20443;-83
2023/08/20 06:24:24;;;;;;;5.60;4.87;;;23.30;99.90;;;;;;5114969;28;20220;-83
2023/08/20 06:26:52;;;;;;;6.13;4.77;;;23.30;99.90;;;;;;5115309;28;20208;-83
2023/08/20 06:29:21;;;;;;;6.87;4.73;;;23.30;99.90;;;;;;5115000;28;20288;-83
2023/08/20 06:31:48;;;;;;;4.20;3.80;;;23.40;99.90;;;;;;5114933;28;20212;-83
2023/08/20 06:34:14;;;;;;;5.82;4.63;;;23.40;99.90;;;;;;5115111;28;20204;-83
2023/08/20 06:36:41;;;;;;;6.40;5.13;;;23.50;99.90;;;;;;5114541;28;20193;-83
2023/08/20 06:39:10;;;;;;;5.50;4.70;;;23.50;99.90;;;;;;5114479;28;20200;-83
2023/08/20 06:41:36;;;;;;;8.65;4.63;;;23.60;99.90;;;;;;5115055;28;20205;-83
2023/08/20 06:44:04;;;;;;;7.47;5.00;;;23.80;99.90;;;;;;5114342;28;20692;-83
2023/08/20 06:46:30;;;;;;;4.72;4.13;;;24.10;99.90;;;;;;5114532;28;20224;-83
2023/08/20 06:48:57;;;;;;;5.90;4.28;;;24.20;99.90;;;;;;5114308;28;20207;-83
2023/08/20 06:51:25;;;;;;;8.43;4.53;;;24.30;99.90;;;;;;5114537;28;20249;-83
2023/08/20 06:53:52;;;;;;;4.70;4.00;;;24.50;99.90;;;;;;5114428;28;20205;-83
2023/08/20 06:56:20;;;;;;;11.60;4.47;;;24.60;99.90;;;;;;5114424;27;20220;-83
2023/08/20 06:58:47;;;;;;;8.02;5.00;;;24.70;99.90;;;;;;5114193;28;20196;-83
2023/08/20 07:01:14;;;;;;;5.97;5.38;;;24.80;99.90;;;;;;5114452;28;20211;-83
2023/08/20 07:03:41;;;;;;;5.78;5.13;;;24.90;99.90;;;;;;5114217;28;20228;-83
2023/08/20 07:06:10;;;;;;;6.93;6.28;;;25.20;99.90;;;;;;5114052;28;20229;-83
2023/08/20 07:08:38;;;;;;;11.75;4.97;;;25.00;99.90;;;;;;5114279;28;20197;-83
2023/08/20 07:11:05;;;;;;;5.45;4.78;;;25.20;99.90;;;;;;5114242;28;20207;-84
2023/08/20 07:13:33;;;;;;;5.93;5.40;;;25.30;99.90;;;;;;5113904;28;20196;-83
2023/08/20 07:16:01;;;;;;;7.95;7.20;;;25.50;99.90;;;;;;5114218;28;20217;-84
2023/08/20 07:18:28;;;;;;;6.10;4.55;;;25.60;99.90;;;;;;5114332;28;20197;-84
2023/08/20 07:20:56;;;;;;;9.20;6.00;;;25.80;99.90;;;;;;5113722;28;20645;-83
2023/08/20 07:23:23;;;;;;;7.53;5.70;;;25.90;99.90;;;;;;5114063;28;20208;-84
2023/08/20 07:25:52;;;;;;;6.90;5.38;;;26.10;99.90;;;;;;5113888;28;20228;-83
2023/08/20 07:28:26;;;;;;;8.15;7.22;;;26.20;99.90;;;;;;5113710;28;20673;-84
2023/08/20 07:30:54;;;;;;;8.30;7.50;;;26.30;99.90;;;;;;5113681;28;20629;-84
2023/08/20 07:33:21;;;;;;;6.18;5.55;;;26.40;99.90;;;;;;5113952;28;20209;-84
2023/08/20 07:35:48;;;;;;;6.45;5.82;;;26.50;99.90;;;;;;5113516;28;20213;-84
2023/08/20 07:38:15;;;;;;;6.35;4.53;;;26.60;99.90;;;;;;5113585;28;20689;-84
2023/08/20 07:40:41;;;;;;;6.72;5.60;;;26.70;99.90;;;;;;5113796;28;20208;-84
2023/08/20 07:43:08;;;;;;;5.53;4.22;;;26.70;99.90;;;;;;5113851;28;20577;-84
2023/08/20 07:45:35;;;;;;;7.18;5.03;;;26.70;99.90;;;;;;5113679;28;20229;-83
2023/08/20 07:48:03;;;;;;;7.07;5.35;;;26.70;99.90;;;;;;5113811;28;20208;-83
2023/08/20 07:50:30;;;;;;;7.95;5.57;;;26.80;99.90;;;;;;5113760;28;20204;-84
2023/08/20 07:52:56;;;;;;;10.52;8.75;;;26.80;99.90;;;;;;5114384;28;20211;-83
2023/08/20 07:55:23;;;;;;;8.52;6.72;;;26.80;99.90;;;;;;5113327;28;20219;-83
2023/08/20 07:57:52;;;;;;;7.78;5.95;;;26.80;99.90;;;;;;5113752;28;20208;-84
2023/08/20 08:00:19;;;;;;;8.65;6.15;;;26.80;99.90;;;;;;5113629;28;20232;-84
2023/08/20 08:02:46;;;;;;;8.20;6.60;;;26.70;99.90;;;;;;5113373;28;20232;-84
2023/08/20 08:05:14;;;;;;;15.43;7.60;;;26.80;99.90;;;;;;5113578;28;20589;-84
2023/08/20 08:07:41;;;;;;;7.45;4.90;;;26.70;99.90;;;;;;5113850;28;20205;-84
2023/08/20 08:10:09;;;;;;;7.93;5.65;;;26.70;99.90;;;;;;5113765;28;20201;-84
2023/08/20 08:12:35;;;;;;;7.22;5.03;;;26.80;99.90;;;;;;5113550;28;20197;-84
2023/08/20 08:15:02;;;;;;;7.65;6.80;;;27.00;99.90;;;;;;5113421;28;20590;-84
2023/08/20 08:17:29;;;;;;;34.20;32.08;;;27.30;99.90;;;;;;5113490;28;20283;-83
2023/08/20 08:19:56;;;;;;;45.53;43.08;;;27.50;99.90;;;;;;5116397;28;20196;-84
2023/08/20 08:22:24;;;;;;;13.60;12.30;;;27.70;99.90;;;;;;5117513;28;20205;-84
2023/08/20 08:24:51;;;;;;;19.25;17.80;;;27.80;99.90;;;;;;5117058;28;20763;-84
2023/08/20 08:27:18;;;;;;;29.17;27.02;;;27.90;99.90;;;;;;5117322;28;20225;-84
2023/08/20 08:29:45;;;;;;;27.38;25.63;;;28.00;99.90;;;;;;5117069;28;20673;-85
2023/08/20 08:32:11;;;;;;;24.63;22.75;;;28.00;99.90;;;;;;5117302;28;20246;-84
2023/08/20 08:34:38;;;;;;;25.60;23.90;;;28.00;99.90;;;;;;5117168;28;20228;-84
2023/08/20 08:37:05;;;;;;;36.70;34.15;;;28.00;99.90;;;;;;5117437;28;20203;-84
2023/08/20 08:39:33;;;;;;;23.42;21.52;;;28.20;99.90;;;;;;5117184;28;20211;-84
2023/08/20 08:42:03;;;;;;;23.27;21.55;;;28.30;99.90;;;;;;5117083;28;20213;-83
2023/08/20 08:44:32;;;;;;;16.95;15.60;;;28.30;99.90;;;;;;5116965;28;20216;-83
2023/08/20 08:46:58;;;;;;;25.67;23.52;;;28.40;99.90;;;;;;5116966;28;20227;-84
2023/08/20 08:49:26;;;;;;;32.78;30.30;;;28.50;99.90;;;;;;5117078;27;20204;-84
2023/08/20 08:51:57;;;;;;;36.28;34.03;;;28.60;99.90;;;;;;5116617;28;20727;-84
2023/08/20 08:54:24;;;;;;;46.22;43.28;;;28.60;99.90;;;;;;5116811;28;20230;-83
2023/08/20 08:56:52;;;;;;;19.77;18.02;;;28.70;99.90;;;;;;5116823;28;20193;-84
2023/08/20 08:59:19;;;;;;;21.15;19.52;;;28.90;99.90;;;;;;5116462;27;20693;-84
2023/08/20 09:01:47;;;;;;;24.67;22.75;;;29.20;99.90;;;;;;5116403;28;20680;-84
2023/08/20 09:04:14;;;;;;;76.38;72.35;;;29.60;99.90;;;;;;5116163;28;20716;-83
2023/08/20 09:06:47;;;;;;;91.97;87.22;;;29.80;99.90;;;;;;5116509;28;20222;-83
2023/08/20 09:09:14;;;;;;;22.73;20.83;;;30.00;99.90;;;;;;5116231;28;20204;-83
2023/08/20 09:11:41;;;;;;;45.97;43.17;;;30.20;99.90;;;;;;5116529;28;20543;-84
2023/08/20 09:14:09;;;;;;;43.67;40.63;;;30.40;99.90;;;;;;5116388;28;20204;-83
2023/08/20 09:16:35;;;;;;;48.50;45.55;;;30.40;99.90;;;;;;5116442;28;20204;-83
2023/08/20 09:19:03;;;;;;;71.60;67.85;;;30.30;99.90;;;;;;5116045;28;20219;-83
2023/08/20 09:21:30;;;;;;;52.17;49.08;;;30.30;99.90;;;;;;5116327;28;20210;-83
2023/08/20 09:23:57;;;;;;;75.32;71.20;;;30.20;99.90;;;;;;5116296;28;20201;-84
2023/08/20 09:26:24;;;;;;;52.53;49.22;;;30.20;99.90;;;;;;5116102;28;20224;-84
2023/08/20 09:28:51;;;;;;;55.30;52.13;;;30.30;99.90;;;;;;5115832;27;20685;-83
2023/08/20 09:31:19;;;;;;;32.45;30.30;;;30.40;99.90;;;;;;5114849;28;20305;-83
2023/08/20 09:33:50;;;;;;;26.00;24.17;;;30.40;99.90;;;;;;5115834;28;20224;-83
2023/08/20 09:36:17;;;;;;;38.38;35.78;;;30.30;99.90;;;;;;5116016;28;20217;-84
2023/08/20 09:38:44;;;;;;;56.47;53.28;;;30.30;99.90;;;;;;5116018;27;20623;-83
2023/08/20 09:41:13;;;;;;;47.00;44.20;;;30.20;99.90;;;;;;5115907;27;20212;-84
2023/08/20 09:43:41;;;;;;;51.60;48.60;;;30.10;99.90;;;;;;5115588;28;20213;-83
2023/08/20 09:46:12;;;;;;;58.65;55.22;;;30.10;99.90;;;;;;5115430;28;20222;-84
2023/08/20 09:48:44;;;;;;;72.43;68.03;;;30.30;99.90;;;;;;5115890;28;20212;-83
2023/08/20 09:51:12;;;;;;;41.25;38.42;;;30.30;99.90;;;;;;5115518;28;20562;-83
2023/08/20 09:53:45;;;;;;;44.03;41.28;;;30.40;99.90;;;;;;5115713;28;20205;-83
2023/08/20 09:56:29;;;;;;;40.50;37.97;;;30.60;99.90;;;;;;5115322;28;20705;-83
2023/08/20 09:58:57;;;;;;;48.03;45.13;;;30.70;99.90;;;;;;5115320;28;20641;-83
2023/08/20 10:01:25;;;;;;;46.70;43.70;;;31.10;99.90;;;;;;5115557;28;20209;-84
2023/08/20 10:03:53;;;;;;;70.50;66.57;;;31.40;99.90;;;;;;5115281;28;20240;-83
2023/08/20 10:06:21;;;;;;;45.15;42.60;;;31.60;99.90;;;;;;5115314;28;20247;-83
2023/08/20 10:08:49;;;;;;;26.23;24.40;;;31.40;99.90;;;;;;5115121;28;20208;-83
2023/08/20 10:11:16;;;;;;;22.17;20.73;;;31.30;99.90;;;;;;5115553;28;20201;-83
2023/08/20 10:13:42;;;;;;;64.22;60.72;;;31.30;99.90;;;;;;5115331;27;20204;-83
2023/08/20 10:16:09;;;;;;;20.00;18.27;;;31.20;99.90;;;;;;5114871;27;20584;-83
2023/08/20 10:18:36;;;;;;;44.40;41.83;;;31.00;99.90;;;;;;5115232;28;20197;-84
2023/08/20 10:21:07;;;;;;;62.40;58.97;;;31.00;99.90;;;;;;5115181;27;20201;-84
2023/08/20 10:23:34;;;;;;;76.28;72.25;;;30.90;99.90;;;;;;5115198;28;20280;-84
2023/08/20 10:26:08;;;;;;;31.27;29.17;;;30.80;99.90;;;;;;5114936;28;20231;-84
2023/08/20 10:28:36;;;;;;;53.45;50.25;;;30.70;99.90;;;;;;5115065;27;20272;-83
2023/08/20 10:31:07;;;;;;;27.02;25.23;;;30.80;99.90;;;;;;5115010;28;20291;-83
2023/08/20 10:33:36;;;;;;;148.95;141.45;;;30.80;99.90;;;;;;5114686;28;20211;-85
2023/08/20 10:36:14;;;;;;;55.38;52.20;;;30.90;99.90;;;;;;5114561;28;20697;-84
2023/08/20 10:38:40;;;;;;;77.13;72.88;;;30.90;99.90;;;;;;5115213;28;20189;-84
2023/08/20 10:41:08;;;;;;;39.20;36.72;;;30.90;99.90;;;;;;5114593;28;20227;-84
2023/08/20 10:43:37;;;;;;;147.60;140.88;;;30.90;99.90;;;;;;5114773;28;20197;-83
2023/08/20 10:46:16;;;;;;;23.05;21.30;;;31.00;99.90;;;;;;5114266;28;20231;-84
2023/08/20 10:48:46;;;;;;;24.15;22.50;;;31.20;99.90;;;;;;5114390;28;20596;-83
2023/08/20 10:51:16;;;;;;;28.02;26.17;;;31.40;99.90;;;;;;5114358;28;20189;-84
2023/08/20 10:53:44;;;;;;;30.55;28.48;;;31.60;99.90;;;;;;5114410;28;20562;-84
2023/08/20 10:56:13;;;;;;;24.38;22.58;;;32.00;99.90;;;;;;5114603;28;20216;-84
2023/08/20 10:58:43;;;;;;;22.90;21.23;;;32.40;99.90;;;;;;5114204;28;20670;-84
2023/08/20 11:01:18;;;;;;;23.95;22.20;;;32.70;99.90;;;;;;5114421;28;20198;-84
2023/08/20 11:03:46;;;;;;;20.85;19.35;;;33.00;99.90;;;;;;5114053;28;20247;-84
2023/08/20 11:06:14;;;;;;;28.10;26.13;;;33.10;99.90;;;;;;5113863;28;20693;-84
2023/08/20 11:08:42;;;;;;;33.97;31.67;;;33.20;99.90;;;;;;5114328;28;20207;-84
2023/08/20 11:11:09;;;;;;;38.20;35.72;;;33.10;99.90;;;;;;5114246;28;20198;-84
2023/08/20 11:13:36;;;;;;;38.63;36.10;;;33.10;99.90;;;;;;5114237;28;20213;-83
2023/08/20 11:16:04;;;;;;;29.40;27.27;;;32.90;99.90;;;;;;5114090;28;20225;-84
2023/08/20 11:18:33;;;;;;;40.08;37.70;;;32.70;99.90;;;;;;5114130;28;20204;-84
2023/08/20 11:21:00;;;;;;;30.63;28.50;;;32.40;99.90;;;;;;5114068;28;20240;-83
2023/08/20 11:23:29;;;;;;;36.33;34.05;;;32.30;99.90;;;;;;5114091;28;20211;-84
2023/08/20 11:25:56;;;;;;;37.38;35.05;;;32.20;99.90;;;;;;5113573;28;20235;-84
2023/08/20 11:28:23;;;;;;;25.73;23.92;;;32.00;99.90;;;;;;5114660;28;20202;-84
2023/08/20 11:30:50;;;;;;;33.97;31.35;;;31.80;99.90;;;;;;5113982;28;20203;-84
2023/08/20 11:33:17;;;;;;;28.13;26.13;;;31.70;99.90;;;;;;5113994;28;20206;-84
2023/08/20 11:35:45;;;;;;;33.72;31.60;;;31.60;99.90;;;;;;5113591;28;20229;-84
2023/08/20 11:38:12;;;;;;;35.17;32.72;;;31.60;99.90;;;;;;5113819;28;20666;-84
2023/08/20 11:40:41;;;;;;;34.33;32.20;;;31.70;99.90;;;;;;5113986;28;20201;-83
2023/08/20 11:43:08;;;;;;;31.58;29.48;;;31.70;99.90;;;;;;5113837;28;20202;-84
2023/08/20 11:45:45;;;;;;;27.92;26.02;;;31.70;99.90;;;;;;5113763;28;20217;-83
2023/08/20 11:48:12;;;;;;;26.65;24.83;;;31.70;99.90;;;;;;5113718;28;20692;-83
2023/08/20 11:50:40;;;;;;;32.55;30.38;;;31.60;99.90;;;;;;5113751;28;20206;-83
2023/08/20 11:53:07;;;;;;;35.83;33.55;;;31.60;99.90;;;;;;5113896;28;20203;-84
2023/08/20 11:55:34;;;;;;;27.42;25.42;;;31.70;99.90;;;;;;5117999;28;20271;-83
2023/08/20 11:58:02;;;;;;;34.78;32.60;;;31.70;99.90;;;;;;5117997;28;20200;-84
2023/08/20 12:00:32;;;;;;;28.27;26.40;;;31.60;99.90;;;;;;5117963;28;20201;-83
2023/08/20 12:02:59;;;;;;;27.55;25.83;;;31.60;99.90;;;;;;5117574;28;20230;-83
2023/08/20 12:05:28;;;;;;;43.58;40.67;;;31.60;99.90;;;;;;5117726;28;20220;-84
2023/08/20 12:07:58;;;;;;;42.03;39.38;;;31.60;99.90;;;;;;5117517;28;20221;-84
2023/08/20 12:10:26;;;;;;;58.88;55.22;;;31.60;99.90;;;;;;5117498;27;20186;-84
2023/08/20 12:12:54;;;;;;;46.38;43.70;;;31.60;99.90;;;;;;5117701;28;20208;-83
2023/08/20 12:15:23;;;;;;;40.47;38.05;;;31.40;99.90;;;;;;5117264;28;20596;-82
2023/08/20 12:18:01;;;;;;;36.42;34.00;;;31.30;99.90;;;;;;5117283;28;20659;-81
2023/08/20 12:20:29;;;;;;;32.03;29.73;;;31.30;99.90;;;;;;5117540;28;20297;-82
2023/08/20 12:22:59;;;;;;;29.40;27.30;;;31.30;99.90;;;;;;5117505;28;20557;-82
2023/08/20 12:25:26;;;;;;;30.88;28.88;;;31.30;99.90;;;;;;5117405;28;20275;-81
2023/08/20 12:27:53;;;;;;;53.25;50.03;;;31.40;99.90;;;;;;5116986;28;20596;-81
2023/08/20 12:30:20;;;;;;;39.30;36.92;;;31.40;99.90;;;;;;5117509;28;20205;-81
2023/08/20 12:32:48;;;;;;;41.33;38.72;;;31.30;99.90;;;;;;5117264;28;20278;-81
2023/08/20 12:35:15;;;;;;;46.97;44.20;;;31.20;99.90;;;;;;5117187;28;20229;-81
2023/08/20 12:37:42;;;;;;;41.60;39.13;;;31.20;99.90;;;;;;5117333;28;20203;-81
2023/08/20 12:40:12;;;;;;;44.80;41.47;;;31.20;99.90;;;;;;5117292;28;20207;-81